KHST

Homestead ARB Airport

Homestead, Florida, USA
TAF KHST 181600Z 1816/1922 02006KT 9999 SKC QNH3005INS BECMG 1821/1822 09006KT 9999 SCT025 QNH3004INS BECMG 1906/1907 01006KT 9999 FEW025 QNH3004INS BECMG 1916/1917 12009KT 9999 BKN090 QNH2997INS TX23/1820Z TN15/1912Z
Issued Valid From Valid To
Dec-18 @ 16:00 UTC
(8 hours ago)
Dec-18 @ 16:00 UTC
(8 hours ago)
Dec-19 @ 22:00 UTC
(in 22 hours)
Expired Click to View Dec-18 @ 16:00 to Dec-18 @ 21:00
TAF KHST 181600Z 1816/1922 02006KT 9999 SKC QNH3005INS
Wind Visibility Clouds Readings
20° at 6 knots Greater than 6 miles
  • Clear skies
Altimeter 30.06" Hg
Pressure 1018 hPa
Becoming Dec-18 @ 21:00 to Dec-19 @ 06:00
BECMG 1821/1822 09006KT 9999 SCT025 QNH3004INS
Wind Visibility Clouds Readings
90° at 6 knots Greater than 6 miles
  • Scattered at 2,500' AGL
Altimeter 30.03" Hg
Pressure 1017 hPa
Becoming Dec-19 @ 06:00 to Dec-19 @ 16:00
BECMG 1906/1907 01006KT 9999 FEW025 QNH3004INS
Wind Visibility Clouds Readings
10° at 6 knots Greater than 6 miles
  • Few at 2,500' AGL
Altimeter 30.03" Hg
Pressure 1017 hPa
Becoming Dec-19 @ 16:00 to Dec-19 @ 22:00
BECMG 1916/1917 12009KT 9999 BKN090 QNH2997INS TX23/1820Z TN15/1912Z
Wind Visibility Clouds Readings
120° at 9 knots Greater than 6 miles
  • Broken at 9,000' AGL
Altimeter 29.97" Hg
Pressure 1015 hPa
TAF KHST 181600Z 1816/1922 02006KT 9999 SKC QNH3005INS BECMG 1821/1822 09006KT 9999 SCT025 QNH3004INS BECMG 1906/1907 01006KT 9999 FEW025 QNH3004INS BECMG 1916/1917 12009KT 9999 BKN090 QNH2997INS TX23/1820Z TN15/1912Z
Issued Dec-18 @ 16:00 UTC
(8 hours ago)
Valid From Dec-18 @ 16:00 UTC
(8 hours ago)
Valid To Dec-19 @ 22:00 UTC
(in 22 hours)
Dec-18 @ 16:00 - Dec-18 @ 21:00
Wind Visibility
20° at 6 knots Greater than 6 miles
Clouds
  • Clear skies
Becoming Dec-18 @ 21:00 - Dec-19 @ 06:00
Wind Visibility
90° at 6 knots Greater than 6 miles
Clouds
  • Scattered at 2,500' AGL
Becoming Dec-19 @ 06:00 - Dec-19 @ 16:00
Wind Visibility
10° at 6 knots Greater than 6 miles
Clouds
  • Few at 2,500' AGL
Becoming Dec-19 @ 16:00 - Dec-19 @ 22:00
Wind Visibility
120° at 9 knots Greater than 6 miles
Clouds
  • Broken at 9,000' AGL